createdAt,value
2023-03-24T00:01:58.270Z,94387.28
2023-03-24T00:04:25.077Z,94462.63
2023-03-24T00:06:52.287Z,94643.66
2023-03-24T00:09:18.752Z,94700.09
2023-03-24T00:11:45.186Z,94745.25
2023-03-24T00:14:14.448Z,94740.41
2023-03-24T00:16:45.315Z,94735.53
2023-03-24T00:19:13.483Z,94809.56
2023-03-24T00:21:39.906Z,94848.88
2023-03-24T00:24:09.254Z,94898.91
2023-03-24T00:26:40.083Z,94939.25
2023-03-24T00:29:11.778Z,94984.63
2023-03-24T00:31:40.041Z,94986.91
2023-03-24T00:34:08.718Z,95081.41
2023-03-24T00:36:35.280Z,95198.91
2023-03-24T00:39:01.766Z,95176.69
2023-03-24T00:41:28.961Z,95210.59
2023-03-24T00:43:56.761Z,95209.41
2023-03-24T00:46:29.385Z,95283.78
2023-03-24T00:49:06.457Z,95434.34
2023-03-24T00:51:42.196Z,95467.78
2023-03-24T00:54:10.523Z,95456.94
2023-03-24T00:56:40.513Z,95503.59
2023-03-24T00:59:10.035Z,95383.25
2023-03-24T01:01:37.821Z,95293.13
2023-03-24T01:04:05.819Z,95158.03
2023-03-24T01:06:32.480Z,94997.50
2023-03-24T01:08:59.139Z,94886.66
2023-03-24T01:11:26.370Z,94756.28
2023-03-24T01:13:54.293Z,94686.47
2023-03-24T01:16:25.572Z,94594.69
2023-03-24T01:18:52.590Z,94462.31
2023-03-24T01:21:19.027Z,94392.94
2023-03-24T01:23:45.629Z,94340.88
2023-03-24T01:26:12.066Z,94260.44
2023-03-24T01:28:43.102Z,94196.88
2023-03-24T01:31:10.316Z,94116.03
2023-03-24T01:33:37.557Z,94108.75
2023-03-24T01:36:05.128Z,94052.53
2023-03-24T01:38:31.957Z,94030.56
2023-03-24T01:40:58.516Z,93985.34
2023-03-24T01:43:33.036Z,93979.91
2023-03-24T01:46:19.437Z,93934.72
2023-03-24T01:48:46.414Z,93872.63
2023-03-24T01:51:20.256Z,93883.47
2023-03-24T01:54:18.925Z,93921.97
2023-03-24T01:57:17.736Z,93951.38
2023-03-24T01:59:49.710Z,93960.28
2023-03-24T02:02:16.178Z,93958.28
2023-03-24T02:04:44.490Z,93954.66
2023-03-24T02:07:30.188Z,93922.38
2023-03-24T02:09:56.800Z,93961.41
2023-03-24T02:12:23.237Z,94018.88
2023-03-24T02:14:49.844Z,94043.31
2023-03-24T02:17:19.262Z,94040.69
2023-03-24T02:19:55.105Z,94030.38
2023-03-24T02:22:33.676Z,94016.25
2023-03-24T02:25:31.558Z,94000.53
2023-03-24T02:28:00.947Z,93982.25
2023-03-24T02:30:48.986Z,93943.69
2023-03-24T02:33:33.920Z,93895.25
2023-03-24T02:36:19.060Z,93930.91
2023-03-24T02:38:57.685Z,93967.41
2023-03-24T02:41:28.520Z,93952.91
2023-03-24T02:44:07.153Z,93928.31
2023-03-24T02:46:38.285Z,93923.88
2023-03-24T02:49:19.150Z,93912.22
2023-03-24T02:52:15.697Z,93873.91
2023-03-24T02:54:48.154Z,93869.69
2023-03-24T02:57:45.386Z,93855.72
2023-03-24T03:00:20.023Z,93900.88
2023-03-24T03:02:51.955Z,93909.34
2023-03-24T03:05:23.617Z,93930.69
2023-03-24T03:07:50.676Z,93966.19
2023-03-24T03:10:25.203Z,93992.41
2023-03-24T03:12:53.965Z,94012.97
2023-03-24T03:15:23.001Z,94046.88
2023-03-24T03:17:53.409Z,94029.94
2023-03-24T03:20:21.837Z,94034.81
2023-03-24T03:23:00.158Z,94010.19
2023-03-24T03:25:29.033Z,94006.13
2023-03-24T03:27:56.667Z,94019.81
2023-03-24T03:30:42.724Z,94028.72
2023-03-24T03:33:32.127Z,94033.75
2023-03-24T03:35:59.270Z,94067.19
2023-03-24T03:38:40.707Z,94088.34
2023-03-24T03:41:07.228Z,94146.50
2023-03-24T03:43:33.873Z,94203.38
2023-03-24T03:46:01.022Z,94238.88
2023-03-24T03:48:28.000Z,94238.50
2023-03-24T03:51:06.271Z,94210.41
2023-03-24T03:53:45.589Z,94211.59
2023-03-24T03:56:12.632Z,94252.56
2023-03-24T03:58:39.708Z,94237.00
2023-03-24T04:01:06.912Z,94181.09
2023-03-24T04:03:42.575Z,94031.31
2023-03-24T04:06:45.937Z,93844.09
2023-03-24T04:09:28.792Z,93653.91
2023-03-24T04:12:28.928Z,93452.50
2023-03-24T04:15:19.971Z,93218.63
2023-03-24T04:17:55.716Z,93017.44
2023-03-24T04:20:34.333Z,92847.75
2023-03-24T04:23:28.437Z,92724.00
2023-03-24T04:26:16.208Z,92650.59
2023-03-24T04:29:02.838Z,92639.59
2023-03-24T04:31:37.684Z,92656.94
2023-03-24T04:37:02.752Z,92670.53
2023-03-24T04:39:30.075Z,92671.06
2023-03-24T04:41:58.981Z,92694.16
2023-03-24T04:44:25.530Z,92718.31
2023-03-24T04:46:53.336Z,92763.91
2023-03-24T04:49:19.671Z,92799.09
2023-03-24T04:51:46.046Z,92882.53
2023-03-24T04:54:12.620Z,92953.88
2023-03-24T04:56:38.986Z,93011.56
2023-03-24T04:59:07.018Z,93074.66
2023-03-24T05:01:37.822Z,93199.06
2023-03-24T05:04:04.575Z,93310.97
2023-03-24T05:06:31.113Z,93405.41
2023-03-24T05:08:59.320Z,93455.47
2023-03-24T05:11:27.170Z,93527.91
2023-03-24T05:13:54.467Z,93650.94
2023-03-24T05:16:21.253Z,93717.56
2023-03-24T05:18:47.631Z,93736.94
2023-03-24T05:21:14.078Z,93793.75
2023-03-24T05:23:40.691Z,93877.66
2023-03-24T05:26:07.438Z,93916.03
2023-03-24T05:28:33.848Z,93960.00
2023-03-24T05:31:01.587Z,93964.44
2023-03-24T05:33:28.051Z,93977.78
2023-03-24T05:35:54.825Z,93943.88
2023-03-24T05:38:21.308Z,93923.44
2023-03-24T05:40:47.755Z,93936.56
2023-03-24T05:43:14.342Z,93917.19
2023-03-24T05:45:41.534Z,93913.53
2023-03-24T05:48:07.931Z,93886.94
2023-03-24T05:50:34.458Z,93886.47
2023-03-24T05:53:01.086Z,93975.81
2023-03-24T05:55:27.497Z,94043.09
2023-03-24T05:57:53.994Z,94058.41
2023-03-24T06:00:20.820Z,94078.41
2023-03-24T06:02:47.325Z,94104.25
2023-03-24T06:05:13.874Z,94096.78
2023-03-24T06:07:42.361Z,94107.28
2023-03-24T06:10:11.227Z,94115.78
2023-03-24T06:12:38.233Z,94141.19
2023-03-24T06:15:05.588Z,94165.44
2023-03-24T06:17:32.036Z,94195.72
2023-03-24T06:20:02.864Z,94236.50
2023-03-24T06:22:30.890Z,94250.22
2023-03-24T06:24:58.672Z,94271.69
2023-03-24T06:27:30.147Z,94258.56
2023-03-24T06:29:59.795Z,94247.44
2023-03-24T06:32:26.513Z,94271.69
2023-03-24T06:34:53.261Z,94289.81
2023-03-24T06:37:21.469Z,94334.09
2023-03-24T06:39:47.881Z,94325.63
2023-03-24T06:42:14.554Z,94347.81
2023-03-24T06:44:41.135Z,94350.44
2023-03-24T06:47:07.529Z,94333.06
2023-03-24T06:49:34.811Z,94310.44
2023-03-24T06:52:01.862Z,94331.06
2023-03-24T06:54:28.478Z,94337.50
2023-03-24T06:56:54.975Z,94302.72
2023-03-24T06:59:23.962Z,94208.56
2023-03-24T07:01:51.928Z,94205.50
2023-03-24T07:04:18.670Z,94153.38
2023-03-24T07:06:56.662Z,94104.69
2023-03-24T07:09:32.613Z,94079.03
2023-03-24T07:11:59.224Z,94063.28
2023-03-24T07:14:26.429Z,93830.38
2023-03-24T07:16:53.574Z,93655.16
2023-03-24T07:19:20.913Z,93534.78
2023-03-24T07:21:49.940Z,93426.56
2023-03-24T07:24:17.353Z,93354.88
2023-03-24T07:26:44.034Z,93304.97
2023-03-24T07:29:11.036Z,93243.22
2023-03-24T07:31:38.233Z,93253.28
2023-03-24T07:34:05.498Z,93219.88
2023-03-24T07:36:31.970Z,93175.47
2023-03-24T07:38:58.380Z,93189.59
2023-03-24T07:41:26.990Z,93254.22
2023-03-24T07:43:53.375Z,93310.13
2023-03-24T07:46:19.813Z,93428.66
2023-03-24T07:48:46.732Z,93539.47
2023-03-24T07:51:13.167Z,93657.66
2023-03-24T07:53:39.510Z,93805.28
2023-03-24T07:56:06.927Z,94030.69
2023-03-24T07:58:33.323Z,94214.72
2023-03-24T08:00:59.858Z,94464.88
2023-03-24T08:03:28.196Z,94608.75
2023-03-24T08:05:55.289Z,94736.13
2023-03-24T08:08:22.065Z,94764.03
2023-03-24T08:10:50.410Z,94675.47
2023-03-24T08:13:16.995Z,94710.63
2023-03-24T08:15:43.448Z,94703.00
2023-03-24T08:18:10.110Z,94740.56
2023-03-24T08:20:36.993Z,94814.16
2023-03-24T08:23:04.813Z,94786.66
2023-03-24T08:25:31.693Z,94776.91
2023-03-24T08:27:58.260Z,94711.41
2023-03-24T08:30:25.599Z,94693.63
2023-03-24T08:33:00.722Z,94761.50
2023-03-24T08:35:29.463Z,94792.81
2023-03-24T08:37:55.894Z,94986.88
2023-03-24T08:40:24.435Z,95160.22
2023-03-24T08:42:52.691Z,95281.84
2023-03-24T08:45:21.116Z,95312.53
2023-03-24T08:47:49.365Z,95492.78
2023-03-24T08:50:15.972Z,95740.31
2023-03-24T08:52:42.578Z,95956.38
2023-03-24T08:55:10.311Z,96013.81
2023-03-24T08:57:36.676Z,96059.47
2023-03-24T09:00:10.094Z,96058.66
2023-03-24T09:02:36.677Z,96075.25
2023-03-24T09:05:03.262Z,96292.50
2023-03-24T09:07:29.740Z,96447.78
2023-03-24T09:09:56.452Z,96620.25
2023-03-24T09:12:22.821Z,96656.97
2023-03-24T09:14:50.051Z,96751.78
2023-03-24T09:17:16.937Z,96766.66
2023-03-24T09:19:43.855Z,96787.75
2023-03-24T09:22:10.734Z,96879.53
2023-03-24T09:24:37.568Z,96859.22
2023-03-24T09:27:04.045Z,96875.88
2023-03-24T09:29:30.546Z,96856.97
2023-03-24T09:31:57.399Z,96821.91
2023-03-24T09:34:24.388Z,96923.81
2023-03-24T09:36:50.965Z,96925.25
2023-03-24T09:39:19.689Z,96975.44
2023-03-24T09:41:47.722Z,96936.97
2023-03-24T09:44:31.718Z,96953.38
2023-03-24T09:47:03.920Z,96961.19
2023-03-24T09:49:32.738Z,97003.94
2023-03-24T09:52:04.610Z,96999.28
2023-03-24T09:54:44.976Z,97053.06
2023-03-24T09:57:16.749Z,97086.22
2023-03-24T09:59:43.224Z,97123.78
2023-03-24T10:02:14.196Z,97116.09
2023-03-24T10:04:40.606Z,97102.22
2023-03-24T10:07:25.522Z,97111.38
2023-03-24T10:09:59.408Z,97083.97
2023-03-24T10:12:33.631Z,97132.69
2023-03-24T10:15:30.888Z,97166.78
2023-03-24T10:18:13.442Z,97117.75
2023-03-24T10:20:54.839Z,97154.97
2023-03-24T10:23:35.141Z,97165.63
2023-03-24T10:26:08.115Z,97201.22
2023-03-24T10:28:39.920Z,97198.50
2023-03-24T10:31:10.858Z,97327.69
2023-03-24T10:33:40.123Z,97355.16
2023-03-24T10:36:14.716Z,97311.38
2023-03-24T10:38:41.540Z,97319.16
2023-03-24T10:41:13.822Z,97319.41
2023-03-24T10:43:40.206Z,97293.38
2023-03-24T10:46:07.180Z,97324.78
2023-03-24T10:48:39.745Z,97344.72
2023-03-24T10:51:06.777Z,97345.44
2023-03-24T10:53:34.031Z,97415.84
2023-03-24T10:56:00.765Z,97480.97
2023-03-24T10:58:32.676Z,97513.69
2023-03-24T11:00:59.474Z,97538.38
2023-03-24T11:03:30.918Z,97591.56
2023-03-24T11:06:01.493Z,97614.88
2023-03-24T11:08:28.481Z,97637.09
2023-03-24T11:10:55.327Z,97603.94
2023-03-24T11:13:32.894Z,97607.06
2023-03-24T11:16:14.026Z,97618.44
2023-03-24T11:19:21.824Z,97632.47
2023-03-24T11:21:49.697Z,97643.41
2023-03-24T11:24:18.372Z,97626.34
2023-03-24T11:27:05.239Z,97637.81
2023-03-24T11:29:38.158Z,97625.16
2023-03-24T11:32:11.269Z,97570.78
2023-03-24T11:34:42.220Z,97612.88
2023-03-24T11:37:12.707Z,97702.94
2023-03-24T11:39:39.183Z,97984.13
2023-03-24T11:42:12.099Z,98220.91
2023-03-24T11:44:38.662Z,98558.16
2023-03-24T11:47:17.090Z,98743.41
2023-03-24T11:49:46.748Z,98800.34
2023-03-24T11:52:22.113Z,98855.28
2023-03-24T11:54:48.510Z,99258.19
2023-03-24T11:57:17.542Z,99287.63
2023-03-24T11:59:51.218Z,99302.22
2023-03-24T12:02:24.455Z,99309.53
2023-03-24T12:05:04.997Z,99310.81
2023-03-24T12:07:53.308Z,99331.44
2023-03-24T12:10:22.985Z,99332.59
2023-03-24T12:13:08.353Z,99337.53
2023-03-24T12:15:38.755Z,99362.38
2023-03-24T12:18:48.017Z,99373.22
2023-03-24T12:21:17.437Z,99377.75
2023-03-24T12:23:52.811Z,99359.59
2023-03-24T12:26:29.381Z,99382.66
2023-03-24T12:29:17.637Z,99388.69
2023-03-24T12:32:11.605Z,99398.59
2023-03-24T12:34:46.880Z,99380.19
2023-03-24T12:37:16.500Z,99376.59
2023-03-24T12:40:06.616Z,99396.91
2023-03-24T12:42:39.992Z,99427.22
2023-03-24T12:45:26.195Z,99412.28
2023-03-24T12:48:11.242Z,99413.78
2023-03-24T12:50:52.836Z,99436.69
2023-03-24T12:53:29.132Z,99411.47
2023-03-24T12:56:04.786Z,99446.22
2023-03-24T12:58:41.490Z,99428.91
2023-03-24T13:01:32.894Z,99419.25
2023-03-24T13:04:05.795Z,99431.56
2023-03-24T13:06:38.960Z,99435.91
2023-03-24T13:09:14.487Z,99412.69
2023-03-24T13:12:01.091Z,99415.34
2023-03-24T13:14:31.304Z,99392.94
2023-03-24T13:17:03.506Z,99400.09
2023-03-24T13:19:29.914Z,99404.19
2023-03-24T13:21:56.531Z,99394.34
2023-03-24T13:24:22.909Z,99392.09
2023-03-24T13:27:13.919Z,99388.50
2023-03-24T13:29:49.409Z,99394.00
2023-03-24T13:32:23.668Z,99394.91
2023-03-24T13:35:18.706Z,99409.81
2023-03-24T13:37:51.175Z,99391.94
2023-03-24T13:40:25.752Z,99388.56
2023-03-24T13:42:59.092Z,99393.31
2023-03-24T13:45:32.543Z,99385.41
2023-03-24T13:47:58.977Z,99381.19
2023-03-24T13:50:26.011Z,99381.41
2023-03-24T13:52:52.382Z,99375.22
2023-03-24T13:55:23.805Z,99397.44
2023-03-24T13:57:59.928Z,99395.31
2023-03-24T14:00:26.920Z,99396.25
2023-03-24T14:03:20.815Z,99408.56
2023-03-24T14:05:58.638Z,99424.84
2023-03-24T14:08:55.895Z,99426.28
2023-03-24T14:11:32.083Z,99429.53
2023-03-24T14:14:07.626Z,99417.00
2023-03-24T14:16:35.958Z,99423.34
2023-03-24T14:19:17.709Z,99429.88
2023-03-24T14:21:44.472Z,99428.34
2023-03-24T14:24:37.976Z,99422.34
2023-03-24T14:27:37.277Z,99423.50
2023-03-24T14:30:16.221Z,99420.31
2023-03-24T14:32:50.507Z,99414.66
2023-03-24T14:35:29.830Z,99408.06
2023-03-24T14:37:58.733Z,99407.56
2023-03-24T14:40:46.324Z,99422.22
2023-03-24T14:43:22.277Z,99414.19
2023-03-24T14:45:56.295Z,99416.34
2023-03-24T14:48:31.849Z,99432.31
2023-03-24T14:51:06.408Z,99417.63
2023-03-24T14:53:32.927Z,99417.53
2023-03-24T14:55:59.320Z,99428.84
2023-03-24T14:58:30.868Z,99422.28
2023-03-24T15:01:07.308Z,99428.16
2023-03-24T15:03:39.381Z,99431.53
2023-03-24T15:06:12.614Z,99429.44
2023-03-24T15:08:39.009Z,99448.94
2023-03-24T15:11:08.290Z,99433.69
2023-03-24T15:13:44.352Z,99433.09
2023-03-24T15:16:10.778Z,99430.22
2023-03-24T15:19:00.487Z,99424.34
2023-03-24T15:21:38.204Z,99419.81
2023-03-24T15:24:23.278Z,99426.78
2023-03-24T15:26:53.764Z,99427.75
2023-03-24T15:29:20.607Z,99421.88
2023-03-24T15:31:47.403Z,99427.75
2023-03-24T15:34:29.941Z,99405.13
2023-03-24T15:37:20.334Z,99413.03
2023-03-24T15:39:53.862Z,99411.50
2023-03-24T15:42:24.124Z,99404.81
2023-03-24T15:44:51.112Z,99410.63
2023-03-24T15:47:24.760Z,99406.72
2023-03-24T15:50:01.296Z,99408.06
2023-03-24T15:52:35.421Z,99399.03
2023-03-24T15:55:07.324Z,99405.38
2023-03-24T15:57:43.192Z,99399.09
2023-03-24T16:00:35.972Z,99420.47
2023-03-24T16:03:04.191Z,99425.00
2023-03-24T16:05:31.694Z,99436.38
2023-03-24T16:08:05.642Z,99431.69
2023-03-24T16:10:40.383Z,99418.53
2023-03-24T16:13:12.547Z,99410.44
2023-03-24T16:15:41.023Z,99418.34
2023-03-24T16:18:10.635Z,99418.75
2023-03-24T16:20:37.020Z,99396.31
2023-03-24T16:23:03.593Z,99387.34
2023-03-24T16:25:30.826Z,99372.25
2023-03-24T16:27:57.441Z,99308.28
2023-03-24T16:30:25.021Z,99232.84
2023-03-24T16:32:51.604Z,99178.69
2023-03-24T16:35:18.393Z,99144.84
2023-03-24T16:37:45.084Z,99109.66
2023-03-24T16:40:39.510Z,98690.78
2023-03-24T16:43:06.248Z,98671.16
2023-03-24T16:45:32.854Z,98595.19
2023-03-24T16:47:59.549Z,98549.38
2023-03-24T16:50:37.050Z,98428.88
2023-03-24T16:53:07.348Z,98210.22
2023-03-24T16:55:33.855Z,97850.56
2023-03-24T16:58:00.418Z,97624.44
2023-03-24T17:00:27.510Z,97477.66
2023-03-24T17:02:54.030Z,97371.91
2023-03-24T17:05:25.663Z,97439.63
2023-03-24T17:07:52.040Z,97490.53
2023-03-24T17:10:18.433Z,97533.56
2023-03-24T17:12:45.041Z,97465.91
2023-03-24T17:15:21.308Z,97286.91
2023-03-24T17:17:47.943Z,97113.78
2023-03-24T17:20:15.354Z,97043.19
2023-03-24T17:22:43.023Z,90273.19
2023-03-24T17:25:10.914Z,88216.00
2023-03-24T17:27:37.412Z,87677.34
2023-03-24T17:30:04.305Z,87514.78
2023-03-24T17:32:32.236Z,87699.72
2023-03-24T17:34:59.282Z,87961.78
2023-03-24T17:37:28.264Z,88286.47
2023-03-24T17:39:56.226Z,88732.84
2023-03-24T17:42:23.642Z,89254.22
2023-03-24T17:44:50.674Z,89802.94
2023-03-24T17:47:17.369Z,90258.75
2023-03-24T17:49:43.974Z,90689.66
2023-03-24T17:52:10.379Z,91067.91
2023-03-24T17:54:36.811Z,91397.75
2023-03-24T17:57:03.280Z,91671.78
2023-03-24T17:59:29.789Z,91911.38
2023-03-24T18:01:56.385Z,92117.59
2023-03-24T18:04:23.794Z,92342.81
2023-03-24T18:06:50.377Z,92535.03
2023-03-24T18:09:18.334Z,92634.25
2023-03-24T18:11:46.674Z,92622.56
2023-03-24T18:14:14.136Z,92637.56
2023-03-24T18:16:40.624Z,92666.19
2023-03-24T18:19:07.023Z,92706.81
2023-03-24T18:21:33.739Z,92784.66
2023-03-24T18:24:00.361Z,92821.53
2023-03-24T18:26:26.840Z,92862.63
2023-03-24T18:28:53.599Z,92944.66
2023-03-24T18:31:21.048Z,92969.91
2023-03-24T18:33:48.346Z,93002.53
2023-03-24T18:36:26.175Z,92996.00
2023-03-24T18:39:00.400Z,92893.63
2023-03-24T18:41:29.969Z,92861.97
2023-03-24T18:43:57.941Z,92857.06
2023-03-24T18:46:26.063Z,92869.97
2023-03-24T18:48:53.217Z,92849.31
2023-03-24T18:51:20.918Z,92808.84
2023-03-24T18:53:50.498Z,92747.38
2023-03-24T18:56:17.436Z,92676.16
2023-03-24T18:58:45.761Z,92668.94
2023-03-24T19:01:14.692Z,92704.41
2023-03-24T19:03:43.780Z,92790.84
2023-03-24T19:06:11.923Z,92896.44
2023-03-24T19:08:41.073Z,93008.34
2023-03-24T19:11:08.413Z,93113.56
2023-03-24T19:13:36.112Z,93225.94
2023-03-24T19:16:03.029Z,93237.50
2023-03-24T19:18:29.396Z,93210.63
2023-03-24T19:20:57.318Z,93218.69
2023-03-24T19:23:26.851Z,93301.59
2023-03-24T19:25:56.196Z,93433.88
2023-03-24T19:28:29.718Z,93616.53
2023-03-24T19:30:56.954Z,93659.50
2023-03-24T19:33:23.439Z,93695.03
2023-03-24T19:35:50.251Z,93775.53
2023-03-24T19:38:17.697Z,93903.84
2023-03-24T19:40:45.035Z,93936.59
2023-03-24T19:43:11.473Z,94005.88
2023-03-24T19:45:42.404Z,93968.75
2023-03-24T19:48:09.736Z,93923.38
2023-03-24T19:50:36.713Z,93894.03
2023-03-24T19:53:03.205Z,93892.81
2023-03-24T19:55:29.556Z,93967.53
2023-03-24T19:57:56.136Z,94066.34
2023-03-24T20:00:22.655Z,94075.81
2023-03-24T20:02:49.087Z,94083.25
2023-03-24T20:05:16.320Z,94120.19
2023-03-24T20:07:42.670Z,94196.53
2023-03-24T20:10:09.512Z,94248.16
2023-03-24T20:12:36.369Z,94337.53
2023-03-24T20:15:02.782Z,94353.19
2023-03-24T20:17:29.575Z,94329.13
2023-03-24T20:19:56.471Z,94325.66
2023-03-24T20:22:22.969Z,94312.44
2023-03-24T20:24:49.610Z,94325.03
2023-03-24T20:27:16.023Z,94351.72
2023-03-24T20:29:42.439Z,94370.81
2023-03-24T20:32:11.548Z,94453.53
2023-03-24T20:34:38.637Z,94559.25
2023-03-24T20:37:05.793Z,94593.81
2023-03-24T20:39:32.278Z,94615.06
2023-03-24T20:41:58.764Z,94611.03
2023-03-24T20:44:25.458Z,94609.75
2023-03-24T20:46:52.390Z,94545.28
2023-03-24T20:49:18.976Z,94471.03
2023-03-24T20:51:45.758Z,94493.97
2023-03-24T20:54:12.141Z,94361.94
2023-03-24T20:56:39.086Z,94314.91
2023-03-24T20:59:08.454Z,94220.72
2023-03-24T21:01:37.774Z,94121.09
2023-03-24T21:04:08.993Z,94075.25
2023-03-24T21:06:38.058Z,94047.19
2023-03-24T21:09:04.959Z,94015.88
2023-03-24T21:11:31.435Z,94013.88
2023-03-24T21:13:58.356Z,93987.81
2023-03-24T21:16:26.576Z,94085.56
2023-03-24T21:18:57.865Z,94153.81
2023-03-24T21:21:24.333Z,94180.72
2023-03-24T21:23:52.659Z,94170.84
2023-03-24T21:26:19.057Z,94113.78
2023-03-24T21:28:45.507Z,94050.94
2023-03-24T21:31:27.620Z,94000.16
2023-03-24T21:33:54.354Z,93984.53
2023-03-24T21:36:21.339Z,93934.72
2023-03-24T21:38:52.083Z,93913.84
2023-03-24T21:41:18.973Z,93877.75
2023-03-24T21:43:51.137Z,93825.19
2023-03-24T21:46:21.369Z,93850.66
2023-03-24T21:48:52.013Z,93838.44
2023-03-24T21:51:25.154Z,93848.06
2023-03-24T21:53:55.309Z,93842.78
2023-03-24T21:56:22.039Z,93843.16
2023-03-24T21:58:48.661Z,93868.03
2023-03-24T22:01:16.636Z,93957.13
2023-03-24T22:03:43.303Z,94074.34
2023-03-24T22:06:10.619Z,94131.69
2023-03-24T22:08:38.706Z,94202.72
2023-03-24T22:11:05.720Z,94263.69
2023-03-24T22:13:32.443Z,94312.25
2023-03-24T22:15:59.784Z,94370.06
2023-03-24T22:18:27.219Z,94409.38
2023-03-24T22:21:02.896Z,94465.50
2023-03-24T22:23:34.300Z,94487.00
2023-03-24T22:26:01.808Z,94488.34
2023-03-24T22:28:29.000Z,94519.28
2023-03-24T22:31:23.122Z,94553.19
2023-03-24T22:33:50.289Z,94585.09
2023-03-24T22:36:16.678Z,94622.44
2023-03-24T22:38:43.053Z,94637.28
2023-03-24T22:41:11.076Z,94636.28
2023-03-24T22:43:39.487Z,94683.06
2023-03-24T22:46:06.438Z,94756.22
2023-03-24T22:48:32.810Z,94831.38
2023-03-24T22:50:59.157Z,94878.81
2023-03-24T22:53:25.546Z,94924.16
2023-03-24T22:55:52.082Z,94970.28
2023-03-24T22:58:19.004Z,94986.75
2023-03-24T23:00:46.689Z,95004.38
2023-03-24T23:03:13.084Z,95044.81
2023-03-24T23:05:40.835Z,95076.78
2023-03-24T23:08:07.666Z,95031.75
2023-03-24T23:10:34.022Z,95037.28
2023-03-24T23:13:00.412Z,95019.03
2023-03-24T23:15:26.758Z,95062.06
2023-03-24T23:17:53.250Z,95077.41
2023-03-24T23:20:20.055Z,95072.19
2023-03-24T23:22:47.916Z,95082.28
2023-03-24T23:25:14.441Z,95076.72
2023-03-24T23:27:41.347Z,95068.09
2023-03-24T23:30:09.358Z,95128.63
2023-03-24T23:32:36.851Z,95192.56
2023-03-24T23:35:05.190Z,95254.56
2023-03-24T23:37:34.631Z,95279.03
2023-03-24T23:40:12.772Z,95299.56
2023-03-24T23:42:46.393Z,95310.84
2023-03-24T23:45:14.643Z,95321.78
2023-03-24T23:47:42.525Z,95368.16
2023-03-24T23:50:09.281Z,95348.56
2023-03-24T23:52:35.786Z,95327.00
2023-03-24T23:55:02.252Z,95373.38
2023-03-24T23:57:28.871Z,95360.31
2023-03-24T23:59:55.252Z,95382.19
